sensor_id;sensor_type;location;lat;lon;timestamp;pressure;altitude;pressure_sealevel;temperature;humidity
42727;BME280;28372;56.832;60.658;2023-02-21T00:02:14;96623.72;;;-11.51;67.38
42727;BME280;28372;56.832;60.658;2023-02-21T00:05:01;96627.91;;;-11.45;65.95
42727;BME280;28372;56.832;60.658;2023-02-21T00:07:47;96628.72;;;-11.40;63.84
42727;BME280;28372;56.832;60.658;2023-02-21T00:10:33;96610.69;;;-11.41;62.41
42727;BME280;28372;56.832;60.658;2023-02-21T00:13:19;96626.34;;;-11.46;63.81
42727;BME280;28372;56.832;60.658;2023-02-21T00:16:05;96630.75;;;-11.57;65.04
42727;BME280;28372;56.832;60.658;2023-02-21T00:18:51;96623.47;;;-11.55;65.23
42727;BME280;28372;56.832;60.658;2023-02-21T00:21:38;96627.09;;;-11.66;66.78
42727;BME280;28372;56.832;60.658;2023-02-21T00:24:24;96622.38;;;-11.64;66.35
42727;BME280;28372;56.832;60.658;2023-02-21T00:27:09;96619.75;;;-11.75;67.26
42727;BME280;28372;56.832;60.658;2023-02-21T00:29:55;96621.63;;;-11.60;66.88
42727;BME280;28372;56.832;60.658;2023-02-21T00:32:41;96606.75;;;-11.59;65.89
42727;BME280;28372;56.832;60.658;2023-02-21T00:35:28;96615.91;;;-11.46;64.04
42727;BME280;28372;56.832;60.658;2023-02-21T00:38:14;96606.00;;;-11.44;62.96
42727;BME280;28372;56.832;60.658;2023-02-21T00:41:00;96618.75;;;-11.53;63.45
42727;BME280;28372;56.832;60.658;2023-02-21T00:43:46;96609.84;;;-11.73;67.17
42727;BME280;28372;56.832;60.658;2023-02-21T00:46:31;96612.75;;;-11.64;67.84
42727;BME280;28372;56.832;60.658;2023-02-21T00:49:18;96616.41;;;-11.60;69.29
42727;BME280;28372;56.832;60.658;2023-02-21T00:52:04;96613.75;;;-11.70;71.92
42727;BME280;28372;56.832;60.658;2023-02-21T00:54:50;96613.78;;;-11.65;72.25
42727;BME280;28372;56.832;60.658;2023-02-21T00:57:36;96623.19;;;-11.64;71.20
42727;BME280;28372;56.832;60.658;2023-02-21T01:00:23;96632.28;;;-11.61;72.87
42727;BME280;28372;56.832;60.658;2023-02-21T01:03:10;96599.16;;;-11.76;72.62
42727;BME280;28372;56.832;60.658;2023-02-21T01:05:56;96624.28;;;-11.44;70.63
42727;BME280;28372;56.832;60.658;2023-02-21T01:08:43;96627.94;;;-11.35;68.74
42727;BME280;28372;56.832;60.658;2023-02-21T01:11:31;96638.56;;;-11.62;74.34
42727;BME280;28372;56.832;60.658;2023-02-21T01:14:17;96620.06;;;-11.56;72.75
42727;BME280;28372;56.832;60.658;2023-02-21T01:17:03;96626.59;;;-11.53;74.80
42727;BME280;28372;56.832;60.658;2023-02-21T01:19:49;96628.94;;;-11.46;73.79
42727;BME280;28372;56.832;60.658;2023-02-21T01:22:36;96618.50;;;-11.51;72.80
42727;BME280;28372;56.832;60.658;2023-02-21T01:25:22;96625.31;;;-11.35;71.65
42727;BME280;28372;56.832;60.658;2023-02-21T01:28:07;96610.69;;;-11.41;72.32
42727;BME280;28372;56.832;60.658;2023-02-21T01:30:54;96613.03;;;-11.45;71.99
42727;BME280;28372;56.832;60.658;2023-02-21T01:33:40;96627.63;;;-11.49;72.74
42727;BME280;28372;56.832;60.658;2023-02-21T01:36:26;96630.75;;;-11.52;73.18
42727;BME280;28372;56.832;60.658;2023-02-21T01:39:13;96638.06;;;-11.54;74.20
42727;BME280;28372;56.832;60.658;2023-02-21T01:42:00;96635.19;;;-11.47;74.14
42727;BME280;28372;56.832;60.658;2023-02-21T01:44:47;96646.13;;;-11.61;74.38
42727;BME280;28372;56.832;60.658;2023-02-21T01:47:34;96633.91;;;-11.55;75.99
42727;BME280;28372;56.832;60.658;2023-02-21T01:50:24;96627.88;;;-11.61;76.25
42727;BME280;28372;56.832;60.658;2023-02-21T01:53:20;96622.69;;;-11.45;76.86
42727;BME280;28372;56.832;60.658;2023-02-21T01:56:07;96613.78;;;-11.55;76.78
42727;BME280;28372;56.832;60.658;2023-02-21T01:58:58;96609.38;;;-11.59;76.87
42727;BME280;28372;56.832;60.658;2023-02-21T02:05:11;96610.16;;;-11.54;77.11
42727;BME280;28372;56.832;60.658;2023-02-21T02:07:58;96623.50;;;-11.40;75.79
42727;BME280;28372;56.832;60.658;2023-02-21T02:10:45;96587.97;;;-11.66;76.13
42727;BME280;28372;56.832;60.658;2023-02-21T02:19:28;96611.75;;;-11.32;75.26
42727;BME280;28372;56.832;60.658;2023-02-21T02:25:14;96601.31;;;-11.32;73.25
42727;BME280;28372;56.832;60.658;2023-02-21T02:27:50;96609.41;;;-11.33;71.79
42727;BME280;28372;56.832;60.658;2023-02-21T02:33:31;96604.97;;;-11.28;70.78
42727;BME280;28372;56.832;60.658;2023-02-21T02:36:13;96594.78;;;-11.40;68.71
42727;BME280;28372;56.832;60.658;2023-02-21T02:42:32;96593.50;;;-11.37;71.91
42727;BME280;28372;56.832;60.658;2023-02-21T02:45:09;96584.88;;;-11.43;73.32
42727;BME280;28372;56.832;60.658;2023-02-21T02:47:42;96590.59;;;-11.41;72.79
42727;BME280;28372;56.832;60.658;2023-02-21T02:50:12;96596.09;;;-11.42;72.55
42727;BME280;28372;56.832;60.658;2023-02-21T02:53:01;96594.00;;;-11.45;73.24
42727;BME280;28372;56.832;60.658;2023-02-21T02:55:36;96574.16;;;-11.57;71.29
42727;BME280;28372;56.832;60.658;2023-02-21T02:58:09;96575.22;;;-11.52;71.52
42727;BME280;28372;56.832;60.658;2023-02-21T03:00:42;96576.22;;;-11.59;72.23
42727;BME280;28372;56.832;60.658;2023-02-21T03:06:30;96565.00;;;-11.49;70.35
42727;BME280;28372;56.832;60.658;2023-02-21T03:14:42;96579.38;;;-11.57;71.84
42727;BME280;28372;56.832;60.658;2023-02-21T03:17:14;96571.00;;;-11.69;71.39
42727;BME280;28372;56.832;60.658;2023-02-21T03:19:43;96572.06;;;-11.55;68.90
42727;BME280;28372;56.832;60.658;2023-02-21T03:22:17;96580.69;;;-11.54;67.69
42727;BME280;28372;56.832;60.658;2023-02-21T03:24:48;96590.84;;;-11.47;66.56
42727;BME280;28372;56.832;60.658;2023-02-21T03:27:19;96565.78;;;-11.59;67.25
42727;BME280;28372;56.832;60.658;2023-02-21T03:29:57;96580.41;;;-11.52;68.78
42727;BME280;28372;56.832;60.658;2023-02-21T03:32:39;96583.56;;;-11.56;70.66
42727;BME280;28372;56.832;60.658;2023-02-21T03:35:09;96584.53;;;-11.67;71.84
42727;BME280;28372;56.832;60.658;2023-02-21T03:37:44;96591.88;;;-11.54;72.29
42727;BME280;28372;56.832;60.658;2023-02-21T03:40:16;96578.03;;;-11.69;75.80
42727;BME280;28372;56.832;60.658;2023-02-21T03:42:49;96586.94;;;-11.65;75.60
42727;BME280;28372;56.832;60.658;2023-02-21T03:45:18;96580.91;;;-11.66;76.09
42727;BME280;28372;56.832;60.658;2023-02-21T03:48:01;96579.34;;;-11.62;77.78
42727;BME280;28372;56.832;60.658;2023-02-21T03:50:31;96575.44;;;-11.69;80.44
42727;BME280;28372;56.832;60.658;2023-02-21T03:52:59;96572.03;;;-11.70;81.43
42727;BME280;28372;56.832;60.658;2023-02-21T03:55:28;96574.16;;;-11.57;79.82
42727;BME280;28372;56.832;60.658;2023-02-21T03:57:57;96570.25;;;-11.54;78.77
42727;BME280;28372;56.832;60.658;2023-02-21T04:00:27;96566.09;;;-11.40;76.33
42727;BME280;28372;56.832;60.658;2023-02-21T04:02:55;96584.34;;;-11.40;76.93
42727;BME280;28372;56.832;60.658;2023-02-21T04:05:35;96566.34;;;-11.31;75.23
42727;BME280;28372;56.832;60.658;2023-02-21T04:08:04;96558.78;;;-11.43;78.69
42727;BME280;28372;56.832;60.658;2023-02-21T04:10:32;96559.53;;;-11.32;79.15
42727;BME280;28372;56.832;60.658;2023-02-21T04:13:13;96554.59;;;-11.18;75.25
42727;BME280;28372;56.832;60.658;2023-02-21T04:15:44;96560.34;;;-11.16;74.74
42727;BME280;28372;56.832;60.658;2023-02-21T04:18:12;96564.00;;;-11.12;76.72
42727;BME280;28372;56.832;60.658;2023-02-21T04:20:40;96545.72;;;-11.12;77.11
42727;BME280;28372;56.832;60.658;2023-02-21T04:23:20;96554.84;;;-11.04;75.89
42727;BME280;28372;56.832;60.658;2023-02-21T04:25:48;96549.66;;;-11.09;78.40
42727;BME280;28372;56.832;60.658;2023-02-21T04:28:29;96557.47;;;-11.14;83.44
42727;BME280;28372;56.832;60.658;2023-02-21T04:30:57;96552.00;;;-11.08;82.47
42727;BME280;28372;56.832;60.658;2023-02-21T04:33:25;96557.19;;;-11.03;82.34
42727;BME280;28372;56.832;60.658;2023-02-21T04:35:53;96553.31;;;-11.05;84.96
42727;BME280;28372;56.832;60.658;2023-02-21T04:38:24;96559.03;;;-11.03;86.04
42727;BME280;28372;56.832;60.658;2023-02-21T04:40:52;96544.66;;;-11.11;88.29
42727;BME280;28372;56.832;60.658;2023-02-21T04:43:19;96546.50;;;-11.01;88.49
42727;BME280;28372;56.832;60.658;2023-02-21T04:45:47;96533.19;;;-10.99;nan
42727;BME280;28372;56.832;60.658;2023-02-21T04:48:15;96535.81;;;-11.05;89.75
42727;BME280;28372;56.832;60.658;2023-02-21T04:50:43;96554.06;;;-10.84;86.07
42727;BME280;28372;56.832;60.658;2023-02-21T04:53:11;96533.41;;;-10.86;85.92
42727;BME280;28372;56.832;60.658;2023-02-21T04:55:39;96544.88;;;-10.66;77.46
42727;BME280;28372;56.832;60.658;2023-02-21T04:58:06;96531.31;;;-10.73;82.09
42727;BME280;28372;56.832;60.658;2023-02-21T05:00:34;96539.63;;;-10.61;79.76
42727;BME280;28372;56.832;60.658;2023-02-21T05:03:01;96557.16;;;-10.61;83.83
42727;BME280;28372;56.832;60.658;2023-02-21T05:05:29;96548.50;;;-10.62;87.41
42727;BME280;28372;56.832;60.658;2023-02-21T05:07:57;96542.25;;;-10.56;91.86
42727;BME280;28372;56.832;60.658;2023-02-21T05:10:24;96534.91;;;-10.48;92.05
42727;BME280;28372;56.832;60.658;2023-02-21T05:13:09;96537.25;;;-10.42;92.84
42727;BME280;28372;56.832;60.658;2023-02-21T05:15:37;96565.19;;;-10.37;96.65
42727;BME280;28372;56.832;60.658;2023-02-21T05:18:04;96545.84;;;-10.36;97.62
42727;BME280;28372;56.832;60.658;2023-02-21T05:20:32;96558.84;;;-10.26;97.00
42727;BME280;28372;56.832;60.658;2023-02-21T05:22:59;96571.38;;;-10.23;98.65
42727;BME280;28372;56.832;60.658;2023-02-21T05:25:39;96567.94;;;-10.13;97.23
42727;BME280;28372;56.832;60.658;2023-02-21T05:28:06;96547.06;;;-10.23;100.00
42727;BME280;28372;56.832;60.658;2023-02-21T05:30:34;96572.13;;;-10.07;98.59
42727;BME280;28372;56.832;60.658;2023-02-21T05:33:01;96548.53;;;-10.02;100.00
42727;BME280;28372;56.832;60.658;2023-02-21T05:35:29;96543.56;;;-9.98;100.00
42727;BME280;28372;56.832;60.658;2023-02-21T05:37:57;96551.16;;;-10.02;100.00
42727;BME280;28372;56.832;60.658;2023-02-21T05:40:24;96562.84;;;-9.84;100.00
42727;BME280;28372;56.832;60.658;2023-02-21T05:42:52;96564.63;;;-9.79;100.00
42727;BME280;28372;56.832;60.658;2023-02-21T05:45:19;96563.31;;;-9.71;100.00
42727;BME280;28372;56.832;60.658;2023-02-21T05:47:47;96557.22;;;-9.61;100.00
42727;BME280;28372;56.832;60.658;2023-02-21T05:50:15;96551.41;;;-9.53;100.00
42727;BME280;28372;56.832;60.658;2023-02-21T05:52:42;96545.63;;;-9.45;100.00
42727;BME280;28372;56.832;60.658;2023-02-21T05:55:10;96536.91;;;-9.35;100.00
42727;BME280;28372;56.832;60.658;2023-02-21T05:57:38;96541.78;;;-9.23;100.00
42727;BME280;28372;56.832;60.658;2023-02-21T06:00:06;96536.31;;;-9.27;100.00
42727;BME280;28372;56.832;60.658;2023-02-21T06:02:37;96537.56;;;-9.19;100.00
42727;BME280;28372;56.832;60.658;2023-02-21T06:05:05;96527.50;;;-9.07;100.00
42727;BME280;28372;56.832;60.658;2023-02-21T06:07:33;96528.22;;;-8.96;100.00
42727;BME280;28372;56.832;60.658;2023-02-21T06:10:01;96522.91;;;-8.91;100.00
42727;BME280;28372;56.832;60.658;2023-02-21T06:12:29;96507.41;;;-8.87;100.00
42727;BME280;28372;56.832;60.658;2023-02-21T06:14:57;96519.31;;;-8.71;100.00
42727;BME280;28372;56.832;60.658;2023-02-21T06:17:24;96541.22;;;-8.62;100.00
42727;BME280;28372;56.832;60.658;2023-02-21T06:19:55;96519.38;;;-8.52;100.00
42727;BME280;28372;56.832;60.658;2023-02-21T06:22:23;96532.34;;;-8.41;100.00
42727;BME280;28372;56.832;60.658;2023-02-21T06:24:50;96530.94;;;-8.34;100.00
42727;BME280;28372;56.832;60.658;2023-02-21T06:27:18;96557.56;;;-8.21;100.00
42727;BME280;28372;56.832;60.658;2023-02-21T06:29:45;96543.81;;;-8.13;100.00
42727;BME280;28372;56.832;60.658;2023-02-21T06:32:13;96547.16;;;-8.07;100.00
42727;BME280;28372;56.832;60.658;2023-02-21T06:34:43;96533.75;;;-8.06;100.00
42727;BME280;28372;56.832;60.658;2023-02-21T06:37:11;96525.31;;;-8.03;100.00
42727;BME280;28372;56.832;60.658;2023-02-21T06:39:38;96527.09;;;-8.17;100.00
42727;BME280;28372;56.832;60.658;2023-02-21T06:42:06;96521.28;;;-8.14;100.00
42727;BME280;28372;56.832;60.658;2023-02-21T06:44:34;96533.19;;;-8.03;100.00
42727;BME280;28372;56.832;60.658;2023-02-21T06:47:01;96526.28;;;-7.94;100.00
42727;BME280;28372;56.832;60.658;2023-02-21T06:49:29;96528.53;;;-7.87;100.00
42727;BME280;28372;56.832;60.658;2023-02-21T06:51:56;96541.63;;;-7.87;100.00
42727;BME280;28372;56.832;60.658;2023-02-21T06:54:24;96533.84;;;-7.73;100.00
42727;BME280;28372;56.832;60.658;2023-02-21T06:56:51;96538.91;;;-7.77;100.00
42727;BME280;28372;56.832;60.658;2023-02-21T06:59:19;96521.81;;;-7.74;100.00
42727;BME280;28372;56.832;60.658;2023-02-21T07:01:46;96534.78;;;-7.64;100.00
42727;BME280;28372;56.832;60.658;2023-02-21T07:04:14;96517.09;;;-7.77;100.00
42727;BME280;28372;56.832;60.658;2023-02-21T07:06:42;96499.59;;;-7.82;100.00
42727;BME280;28372;56.832;60.658;2023-02-21T07:09:09;96480.38;;;-7.96;100.00
42727;BME280;28372;56.832;60.658;2023-02-21T07:11:37;96492.34;;;-7.90;100.00
42727;BME280;28372;56.832;60.658;2023-02-21T07:14:05;96485.97;;;-8.03;100.00
42727;BME280;28372;56.832;60.658;2023-02-21T07:16:32;96509.72;;;-7.94;97.21
42727;BME280;28372;56.832;60.658;2023-02-21T07:19:00;96486.16;;;-8.18;97.82
42727;BME280;28372;56.832;60.658;2023-02-21T07:21:28;96475.34;;;-8.12;94.92
42727;BME280;28372;56.832;60.658;2023-02-21T07:23:55;96489.25;;;-8.35;97.50
42727;BME280;28372;56.832;60.658;2023-02-21T07:26:23;96460.28;;;-8.25;96.07
42727;BME280;28372;56.832;60.658;2023-02-21T07:28:50;96463.25;;;-8.32;95.79
42727;BME280;28372;56.832;60.658;2023-02-21T07:31:18;96464.31;;;-8.33;96.98
42727;BME280;28372;56.832;60.658;2023-02-21T07:33:47;96463.91;;;-8.21;94.74
42727;BME280;28372;56.832;60.658;2023-02-21T07:36:14;96454.41;;;-8.17;92.30
42727;BME280;28372;56.832;60.658;2023-02-21T07:38:42;96466.94;;;-8.33;91.42
42727;BME280;28372;56.832;60.658;2023-02-21T07:41:10;96470.16;;;-8.17;91.38
42727;BME280;28372;56.832;60.658;2023-02-21T07:43:37;96461.63;;;-8.28;94.03
42727;BME280;28372;56.832;60.658;2023-02-21T07:46:09;96431.78;;;-8.32;93.52
42727;BME280;28372;56.832;60.658;2023-02-21T07:48:37;96444.72;;;-8.16;94.49
42727;BME280;28372;56.832;60.658;2023-02-21T07:51:06;96438.38;;;-8.34;96.46
42727;BME280;28372;56.832;60.658;2023-02-21T07:53:35;96474.69;;;-8.22;95.57
42727;BME280;28372;56.832;60.658;2023-02-21T07:56:03;96470.19;;;-8.41;94.68
42727;BME280;28372;56.832;60.658;2023-02-21T07:58:31;96444.13;;;-8.32;94.97
42727;BME280;28372;56.832;60.658;2023-02-21T08:01:00;96457.38;;;-8.23;93.44
42727;BME280;28372;56.832;60.658;2023-02-21T08:03:29;96466.94;;;-8.14;94.27
42727;BME280;28372;56.832;60.658;2023-02-21T08:05:58;96453.03;;;-8.33;93.52
42727;BME280;28372;56.832;60.658;2023-02-21T08:08:26;96452.94;;;-8.23;91.85
42727;BME280;28372;56.832;60.658;2023-02-21T08:10:54;96458.88;;;-8.17;92.45
42727;BME280;28372;56.832;60.658;2023-02-21T08:13:21;96446.16;;;-8.29;89.16
42727;BME280;28372;56.832;60.658;2023-02-21T08:15:49;96472.91;;;-8.08;84.74
42727;BME280;28372;56.832;60.658;2023-02-21T08:18:21;96469.28;;;-8.12;82.93
42727;BME280;28372;56.832;60.658;2023-02-21T08:20:50;96465.31;;;-8.10;81.70
42727;BME280;28372;56.832;60.658;2023-02-21T08:23:19;96468.38;;;-8.21;83.63
42727;BME280;28372;56.832;60.658;2023-02-21T08:25:47;96422.28;;;-8.28;85.46
42727;BME280;28372;56.832;60.658;2023-02-21T08:28:15;96425.06;;;-8.19;82.75
42727;BME280;28372;56.832;60.658;2023-02-21T08:30:43;96433.34;;;-8.12;79.48
42727;BME280;28372;56.832;60.658;2023-02-21T08:33:11;96423.78;;;-8.02;76.25
42727;BME280;28372;56.832;60.658;2023-02-21T08:35:39;96418.53;;;-8.02;77.26
42727;BME280;28372;56.832;60.658;2023-02-21T08:38:06;96418.63;;;-8.07;77.06
42727;BME280;28372;56.832;60.658;2023-02-21T08:40:34;96422.53;;;-8.05;75.59
42727;BME280;28372;56.832;60.658;2023-02-21T08:43:02;96409.19;;;-8.09;77.05
42727;BME280;28372;56.832;60.658;2023-02-21T08:45:31;96403.63;;;-8.07;75.61
42727;BME280;28372;56.832;60.658;2023-02-21T08:47:59;96413.50;;;-8.18;76.01
42727;BME280;28372;56.832;60.658;2023-02-21T08:50:27;96394.59;;;-8.15;76.79
42727;BME280;28372;56.832;60.658;2023-02-21T08:52:55;96393.16;;;-8.26;81.35
42727;BME280;28372;56.832;60.658;2023-02-21T08:55:23;96389.19;;;-8.23;84.19
42727;BME280;28372;56.832;60.658;2023-02-21T08:57:52;96398.69;;;-8.28;84.19
42727;BME280;28372;56.832;60.658;2023-02-21T09:00:22;96384.56;;;-8.32;86.68
42727;BME280;28372;56.832;60.658;2023-02-21T09:02:51;96386.56;;;-8.43;88.31
42727;BME280;28372;56.832;60.658;2023-02-21T09:05:30;96379.53;;;-8.28;83.95
42727;BME280;28372;56.832;60.658;2023-02-21T09:07:59;96384.84;;;-8.33;84.66
42727;BME280;28372;56.832;60.658;2023-02-21T09:10:30;96382.09;;;-8.23;81.67
42727;BME280;28372;56.832;60.658;2023-02-21T09:13:00;96353.34;;;-8.47;84.93
42727;BME280;28372;56.832;60.658;2023-02-21T09:15:28;96379.19;;;-8.40;85.23
42727;BME280;28372;56.832;60.658;2023-02-21T09:17:56;96366.88;;;-8.40;84.81
42727;BME280;28372;56.832;60.658;2023-02-21T09:20:24;96363.53;;;-8.27;80.84
42727;BME280;28372;56.832;60.658;2023-02-21T09:22:52;96348.53;;;-8.40;81.67
42727;BME280;28372;56.832;60.658;2023-02-21T09:25:22;96362.41;;;-8.39;84.69
42727;BME280;28372;56.832;60.658;2023-02-21T09:27:52;96344.44;;;-8.46;85.82
42727;BME280;28372;56.832;60.658;2023-02-21T09:30:23;96352.69;;;-8.39;85.18
42727;BME280;28372;56.832;60.658;2023-02-21T09:32:53;96342.91;;;-8.33;84.69
42727;BME280;28372;56.832;60.658;2023-02-21T09:35:22;96323.84;;;-8.39;83.62
42727;BME280;28372;56.832;60.658;2023-02-21T09:37:49;96319.56;;;-8.49;86.74
42727;BME280;28372;56.832;60.658;2023-02-21T09:43:15;96354.66;;;-8.31;87.23
42727;BME280;28372;56.832;60.658;2023-02-21T09:45:44;96343.69;;;-8.33;86.59
42727;BME280;28372;56.832;60.658;2023-02-21T09:48:15;96330.41;;;-8.22;84.21
42727;BME280;28372;56.832;60.658;2023-02-21T09:50:50;96335.03;;;-8.14;80.75
42727;BME280;28372;56.832;60.658;2023-02-21T09:53:23;96326.94;;;-8.18;79.60
42727;BME280;28372;56.832;60.658;2023-02-21T09:55:56;96317.38;;;-8.28;83.30
42727;BME280;28372;56.832;60.658;2023-02-21T09:58:25;96321.50;;;-8.40;82.39
42727;BME280;28372;56.832;60.658;2023-02-21T10:00:57;96321.91;;;-8.66;85.73
42727;BME280;28372;56.832;60.658;2023-02-21T10:03:46;96310.28;;;-8.79;87.30
42727;BME280;28372;56.832;60.658;2023-02-21T10:06:24;96310.84;;;-8.63;84.46
42727;BME280;28372;56.832;60.658;2023-02-21T10:08:59;96298.50;;;-8.63;84.05
42727;BME280;28372;56.832;60.658;2023-02-21T10:11:40;96293.72;;;-8.55;82.10
42727;BME280;28372;56.832;60.658;2023-02-21T10:17:10;96288.50;;;-8.41;72.71
42727;BME280;28372;56.832;60.658;2023-02-21T10:19:43;96270.63;;;-8.39;71.85
42727;BME280;28372;56.832;60.658;2023-02-21T10:22:20;96287.03;;;-8.48;71.38
42727;BME280;28372;56.832;60.658;2023-02-21T10:24:50;96285.97;;;-8.47;71.16
42727;BME280;28372;56.832;60.658;2023-02-21T10:27:20;96267.84;;;-8.62;72.19
42727;BME280;28372;56.832;60.658;2023-02-21T10:32:30;96279.25;;;-8.39;66.48
42727;BME280;28372;56.832;60.658;2023-02-21T10:34:59;96275.66;;;-8.57;67.93
42727;BME280;28372;56.832;60.658;2023-02-21T10:37:42;96280.91;;;-8.43;65.70
42727;BME280;28372;56.832;60.658;2023-02-21T10:40:31;96265.00;;;-8.66;67.34
42727;BME280;28372;56.832;60.658;2023-02-21T10:45:41;96243.50;;;-9.20;74.32
42727;BME280;28372;56.832;60.658;2023-02-21T10:48:14;96227.28;;;-9.03;70.85
42727;BME280;28372;56.832;60.658;2023-02-21T10:53:35;96224.34;;;-9.39;77.25
42727;BME280;28372;56.832;60.658;2023-02-21T10:59:00;96217.66;;;-9.26;79.34
42727;BME280;28372;56.832;60.658;2023-02-21T11:01:43;96214.78;;;-9.30;80.65
42727;BME280;28372;56.832;60.658;2023-02-21T11:12:24;96203.28;;;-9.29;82.12
42727;BME280;28372;56.832;60.658;2023-02-21T11:17:22;96194.06;;;-9.26;81.18
42727;BME280;28372;56.832;60.658;2023-02-21T11:22:34;96191.69;;;-9.23;83.06
42727;BME280;28372;56.832;60.658;2023-02-21T11:25:20;96196.91;;;-9.42;86.71
42727;BME280;28372;56.832;60.658;2023-02-21T11:30:48;96170.22;;;-9.06;79.31
42727;BME280;28372;56.832;60.658;2023-02-21T11:33:20;96167.13;;;-9.27;81.77
42727;BME280;28372;56.832;60.658;2023-02-21T11:35:50;96193.81;;;-9.06;79.95
42727;BME280;28372;56.832;60.658;2023-02-21T11:38:36;96167.03;;;-9.22;78.73
42727;BME280;28372;56.832;60.658;2023-02-21T11:41:15;96153.88;;;-9.17;76.60
42727;BME280;28372;56.832;60.658;2023-02-21T11:43:51;96165.56;;;-9.28;78.06
42727;BME280;28372;56.832;60.658;2023-02-21T11:46:44;96190.97;;;-9.09;76.87
42727;BME280;28372;56.832;60.658;2023-02-21T11:51:56;96168.16;;;-9.09;75.63
42727;BME280;28372;56.832;60.658;2023-02-21T11:54:28;96147.50;;;-9.10;75.21
42727;BME280;28372;56.832;60.658;2023-02-21T11:57:03;96169.66;;;-9.22;76.45
42727;BME280;28372;56.832;60.658;2023-02-21T11:59:44;96171.00;;;-9.24;77.40
42727;BME280;28372;56.832;60.658;2023-02-21T12:05:40;96141.41;;;-9.44;79.69
42727;BME280;28372;56.832;60.658;2023-02-21T12:11:19;96122.53;;;-9.22;76.38
42727;BME280;28372;56.832;60.658;2023-02-21T12:14:14;96136.41;;;-9.21;73.07
42727;BME280;28372;56.832;60.658;2023-02-21T12:17:00;96126.78;;;-9.26;73.98
42727;BME280;28372;56.832;60.658;2023-02-21T12:19:55;96119.06;;;-9.17;72.04
42727;BME280;28372;56.832;60.658;2023-02-21T12:25:28;96108.94;;;-9.43;74.94
42727;BME280;28372;56.832;60.658;2023-02-21T12:28:17;96101.91;;;-9.42;76.65
42727;BME280;28372;56.832;60.658;2023-02-21T12:31:05;96122.38;;;-9.50;77.98
42727;BME280;28372;56.832;60.658;2023-02-21T12:47:20;96073.13;;;-9.28;72.41
42727;BME280;28372;56.832;60.658;2023-02-21T12:50:15;96064.03;;;-9.31;74.65
42727;BME280;28372;56.832;60.658;2023-02-21T12:55:33;96055.66;;;-9.33;75.59
42727;BME280;28372;56.832;60.658;2023-02-21T12:58:24;96059.78;;;-9.27;74.15
42727;BME280;28372;56.832;60.658;2023-02-21T13:01:19;96043.56;;;-9.29;77.26
42727;BME280;28372;56.832;60.658;2023-02-21T13:06:33;96057.56;;;-9.20;75.60
42727;BME280;28372;56.832;60.658;2023-02-21T13:12:27;96009.53;;;-9.29;78.61
42727;BME280;28372;56.832;60.658;2023-02-21T13:14:55;96009.53;;;-9.29;80.54
42727;BME280;28372;56.832;60.658;2023-02-21T13:17:25;96008.41;;;-9.23;81.52
42727;BME280;28372;56.832;60.658;2023-02-21T13:20:03;96000.06;;;-9.11;80.17
42727;BME280;28372;56.832;60.658;2023-02-21T13:22:51;95985.03;;;-9.05;81.42
42727;BME280;28372;56.832;60.658;2023-02-21T13:28:27;95979.91;;;-8.97;82.54
42727;BME280;28372;56.832;60.658;2023-02-21T13:31:04;95979.16;;;-8.83;80.92
42727;BME280;28372;56.832;60.658;2023-02-21T13:33:41;95974.88;;;-8.79;80.01
42727;BME280;28372;56.832;60.658;2023-02-21T13:39:15;95943.63;;;-8.62;77.35
42727;BME280;28372;56.832;60.658;2023-02-21T13:41:47;95941.06;;;-8.53;78.26
42727;BME280;28372;56.832;60.658;2023-02-21T13:44:25;95937.09;;;-8.50;81.45
42727;BME280;28372;56.832;60.658;2023-02-21T13:47:07;95923.75;;;-8.40;82.93
42727;BME280;28372;56.832;60.658;2023-02-21T13:49:49;95925.41;;;-8.30;82.71
42727;BME280;28372;56.832;60.658;2023-02-21T13:57:44;95918.31;;;-8.07;77.77
42727;BME280;28372;56.832;60.658;2023-02-21T14:08:28;95908.63;;;-7.84;79.15
42727;BME280;28372;56.832;60.658;2023-02-21T14:23:49;95906.81;;;-7.75;88.00
42727;BME280;28372;56.832;60.658;2023-02-21T14:26:48;95896.50;;;-7.71;86.39
42727;BME280;28372;56.832;60.658;2023-02-21T14:34:39;95886.91;;;-7.76;84.49
42727;BME280;28372;56.832;60.658;2023-02-21T14:37:23;95869.47;;;-7.71;82.97
42727;BME280;28372;56.832;60.658;2023-02-21T14:39:55;95859.44;;;-7.69;78.81
42727;BME280;28372;56.832;60.658;2023-02-21T14:45:52;95847.28;;;-7.65;73.86
42727;BME280;28372;56.832;60.658;2023-02-21T14:57:35;95821.94;;;-7.70;77.39
42727;BME280;28372;56.832;60.658;2023-02-21T15:08:22;95817.91;;;-7.67;83.03
42727;BME280;28372;56.832;60.658;2023-02-21T15:10:58;95805.63;;;-7.58;85.30
42727;BME280;28372;56.832;60.658;2023-02-21T15:13:33;95796.38;;;-7.55;82.86
42727;BME280;28372;56.832;60.658;2023-02-21T15:16:02;95790.84;;;-7.45;81.48
42727;BME280;28372;56.832;60.658;2023-02-21T15:18:36;95788.22;;;-7.45;82.11
42727;BME280;28372;56.832;60.658;2023-02-21T15:23:42;95783.16;;;-7.33;79.53
42727;BME280;28372;56.832;60.658;2023-02-21T15:26:22;95778.34;;;-7.31;80.75
42727;BME280;28372;56.832;60.658;2023-02-21T15:29:08;95772.97;;;-7.26;81.71
42727;BME280;28372;56.832;60.658;2023-02-21T15:31:48;95768.50;;;-7.25;87.84
42727;BME280;28372;56.832;60.658;2023-02-21T15:34:18;95759.09;;;-7.17;89.52
42727;BME280;28372;56.832;60.658;2023-02-21T15:36:59;95755.69;;;-7.09;87.11
42727;BME280;28372;56.832;60.658;2023-02-21T15:39:34;95739.31;;;-7.06;88.84
42727;BME280;28372;56.832;60.658;2023-02-21T15:42:07;95733.00;;;-7.05;90.85
42727;BME280;28372;56.832;60.658;2023-02-21T15:49:45;95720.91;;;-6.97;96.39
42727;BME280;28372;56.832;60.658;2023-02-21T15:52:36;95723.25;;;-6.87;95.52
42727;BME280;28372;56.832;60.658;2023-02-21T15:58:00;95714.59;;;-6.79;99.51
42727;BME280;28372;56.832;60.658;2023-02-21T16:00:38;95702.66;;;-6.76;100.00
42727;BME280;28372;56.832;60.658;2023-02-21T16:03:25;95695.25;;;-6.65;98.22
42727;BME280;28372;56.832;60.658;2023-02-21T16:05:54;95691.53;;;-6.64;99.94
42727;BME280;28372;56.832;60.658;2023-02-21T16:08:35;95689.97;;;-6.57;98.57